createdAt,value
2022-09-09T00:01:38.178Z,97.55
2022-09-09T00:04:15.471Z,97.29
2022-09-09T00:06:49.525Z,97.18
2022-09-09T00:09:22.298Z,97.33
2022-09-09T00:11:53.128Z,97.15
2022-09-09T00:14:38.466Z,96.70
2022-09-09T00:17:13.730Z,96.89
2022-09-09T00:19:51.426Z,96.61
2022-09-09T00:22:24.162Z,96.72
2022-09-09T00:24:57.546Z,97.17
2022-09-09T00:27:38.947Z,96.69
2022-09-09T00:30:28.441Z,96.86
2022-09-09T00:33:00.461Z,96.91
2022-09-09T00:35:36.338Z,96.70
2022-09-09T00:38:11.773Z,96.41
2022-09-09T00:40:45.191Z,96.69
2022-09-09T00:43:26.602Z,96.29
2022-09-09T00:46:16.807Z,96.30
2022-09-09T00:49:04.665Z,96.30
2022-09-09T00:51:31.498Z,96.58
2022-09-09T00:54:16.011Z,96.41
2022-09-09T00:56:55.205Z,96.04
2022-09-09T00:59:28.571Z,96.43
2022-09-09T01:01:56.888Z,96.14
2022-09-09T01:04:34.906Z,95.85
2022-09-09T01:07:16.851Z,96.18
2022-09-09T01:09:52.303Z,96.30
2022-09-09T01:12:26.314Z,96.12
2022-09-09T01:15:09.492Z,96.12
2022-09-09T01:18:00.432Z,95.77
2022-09-09T01:20:34.442Z,96.34
2022-09-09T01:23:24.861Z,96.21
2022-09-09T01:26:22.802Z,96.50
2022-09-09T01:28:53.533Z,96.38
2022-09-09T01:31:29.017Z,96.15
2022-09-09T01:33:55.657Z,96.43
2022-09-09T01:36:36.258Z,96.00
2022-09-09T01:39:03.818Z,96.03
2022-09-09T01:41:30.629Z,96.13
2022-09-09T01:44:05.119Z,96.11
2022-09-09T01:46:34.287Z,95.55
2022-09-09T01:49:05.135Z,95.72
2022-09-09T01:51:32.301Z,95.72
2022-09-09T01:54:04.078Z,95.64
2022-09-09T01:56:49.154Z,95.93
2022-09-09T01:59:41.198Z,96.07
2022-09-09T02:02:13.274Z,96.17
2022-09-09T02:04:51.738Z,95.81
2022-09-09T02:07:47.643Z,95.86
2022-09-09T02:10:51.746Z,96.19
2022-09-09T02:13:36.534Z,96.56
2022-09-09T02:16:16.397Z,96.64
2022-09-09T02:19:29.205Z,96.40
2022-09-09T02:22:07.986Z,95.75
2022-09-09T02:24:38.196Z,95.79
2022-09-09T02:27:22.603Z,95.78
2022-09-09T02:29:52.107Z,95.80
2022-09-09T02:32:25.390Z,95.90
2022-09-09T02:35:00.541Z,95.85
2022-09-09T02:37:32.997Z,95.95
2022-09-09T02:40:00.334Z,95.52
2022-09-09T02:42:32.639Z,95.33
2022-09-09T02:45:02.174Z,95.65
2022-09-09T02:47:39.546Z,95.23
2022-09-09T02:50:11.496Z,95.39
2022-09-09T02:52:48.448Z,95.13
2022-09-09T02:55:25.409Z,95.20
2022-09-09T02:57:58.017Z,95.50
2022-09-09T03:00:28.956Z,95.54
2022-09-09T03:03:00.830Z,95.74
2022-09-09T03:05:28.923Z,95.83
2022-09-09T03:07:55.903Z,95.65
2022-09-09T03:10:22.813Z,95.40
2022-09-09T03:12:49.383Z,95.99
2022-09-09T03:15:17.418Z,95.31
2022-09-09T03:17:44.452Z,95.67
2022-09-09T03:20:11.324Z,95.29
2022-09-09T03:22:38.617Z,95.62
2022-09-09T03:25:06.661Z,95.58
2022-09-09T03:27:35.529Z,95.53
2022-09-09T03:30:04.434Z,95.72
2022-09-09T03:32:32.233Z,95.23
2022-09-09T03:34:59.292Z,95.51
2022-09-09T03:37:26.591Z,95.29
2022-09-09T03:39:55.487Z,95.27
2022-09-09T03:42:22.979Z,95.33
2022-09-09T03:44:52.645Z,95.80
2022-09-09T03:47:23.115Z,95.41
2022-09-09T03:49:52.271Z,95.84
2022-09-09T03:52:23.566Z,95.94
2022-09-09T03:54:52.141Z,96.24
2022-09-09T03:57:18.757Z,96.41
2022-09-09T03:59:45.352Z,96.28
2022-09-09T04:02:11.975Z,96.21
2022-09-09T04:04:38.589Z,96.26
2022-09-09T04:07:07.092Z,96.60
2022-09-09T04:09:35.696Z,96.20
2022-09-09T04:12:02.844Z,96.57
2022-09-09T04:14:30.799Z,96.63
2022-09-09T04:17:07.048Z,96.21
2022-09-09T04:19:34.347Z,96.71
2022-09-09T04:22:01.965Z,96.57
2022-09-09T04:24:30.121Z,96.49
2022-09-09T04:26:58.501Z,96.79
2022-09-09T04:29:25.857Z,96.78
2022-09-09T04:31:52.497Z,97.10
2022-09-09T04:34:19.339Z,96.47
2022-09-09T04:36:46.707Z,96.71
2022-09-09T04:39:13.277Z,96.73
2022-09-09T04:41:39.775Z,96.71
2022-09-09T04:44:06.690Z,96.77
2022-09-09T04:46:35.241Z,96.91
2022-09-09T04:49:03.704Z,97.15
2022-09-09T04:51:32.323Z,97.01
2022-09-09T04:53:59.605Z,96.99
2022-09-09T04:56:31.654Z,97.04
2022-09-09T04:59:06.123Z,96.94
2022-09-09T05:01:40.194Z,97.16
2022-09-09T05:04:06.688Z,96.92
2022-09-09T05:06:35.005Z,97.10
2022-09-09T05:09:02.136Z,97.07
2022-09-09T05:11:33.275Z,97.05
2022-09-09T05:14:20.160Z,97.73
2022-09-09T05:16:48.019Z,97.45
2022-09-09T05:19:14.640Z,96.85
2022-09-09T05:21:44.939Z,96.98
2022-09-09T05:24:12.629Z,97.12
2022-09-09T05:26:40.076Z,96.97
2022-09-09T05:29:07.716Z,97.21
2022-09-09T05:31:34.815Z,97.45
2022-09-09T05:34:30.236Z,97.07
2022-09-09T05:36:57.289Z,97.59
2022-09-09T05:39:25.257Z,97.94
2022-09-09T05:41:52.114Z,97.60
2022-09-09T05:44:18.594Z,97.36
2022-09-09T05:46:45.881Z,97.37
2022-09-09T05:49:13.687Z,97.43
2022-09-09T05:51:41.301Z,97.21
2022-09-09T05:54:11.170Z,97.21
2022-09-09T05:56:42.661Z,97.16
2022-09-09T05:59:10.179Z,96.79
2022-09-09T06:01:41.451Z,96.86
2022-09-09T06:04:10.809Z,96.28
2022-09-09T06:06:40.948Z,96.58
2022-09-09T06:09:16.910Z,96.54
2022-09-09T06:11:43.869Z,96.11
2022-09-09T06:14:11.499Z,95.79
2022-09-09T06:16:39.675Z,95.19
2022-09-09T06:19:13.774Z,93.91
2022-09-09T06:21:41.221Z,93.32
2022-09-09T06:24:09.016Z,93.03
2022-09-09T06:26:38.474Z,92.24
2022-09-09T06:29:05.734Z,91.03
2022-09-09T06:31:35.321Z,91.55
2022-09-09T06:34:09.551Z,90.88
2022-09-09T06:36:39.836Z,91.53
2022-09-09T06:39:12.210Z,91.69
2022-09-09T06:41:40.966Z,91.36
2022-09-09T06:44:14.387Z,91.69
2022-09-09T06:46:42.504Z,91.66
2022-09-09T06:49:11.045Z,92.04
2022-09-09T06:51:43.662Z,92.22
2022-09-09T06:54:13.149Z,91.93
2022-09-09T06:56:44.158Z,92.45
2022-09-09T06:59:17.434Z,91.69
2022-09-09T07:01:45.108Z,92.25
2022-09-09T07:04:14.455Z,92.30
2022-09-09T07:06:46.728Z,92.30
2022-09-09T07:09:23.370Z,91.93
2022-09-09T07:11:53.758Z,92.26
2022-09-09T07:14:22.896Z,91.02
2022-09-09T07:16:59.347Z,91.15
2022-09-09T07:19:27.148Z,91.93
2022-09-09T07:21:55.002Z,92.24
2022-09-09T07:24:23.977Z,91.03
2022-09-09T07:26:53.083Z,91.04
2022-09-09T07:29:21.119Z,91.27
2022-09-09T07:31:49.347Z,91.04
2022-09-09T07:34:20.475Z,91.03
2022-09-09T07:36:47.621Z,90.82
2022-09-09T07:39:14.871Z,90.61
2022-09-09T07:41:48.055Z,91.59
2022-09-09T07:44:22.707Z,90.55
2022-09-09T07:46:54.159Z,90.35
2022-09-09T07:49:32.136Z,89.51
2022-09-09T07:52:00.752Z,89.04
2022-09-09T07:54:28.697Z,87.74
2022-09-09T07:56:55.432Z,88.28
2022-09-09T07:59:25.219Z,88.22
2022-09-09T08:01:55.444Z,87.74
2022-09-09T08:04:26.171Z,87.21
2022-09-09T08:06:56.302Z,86.96
2022-09-09T08:09:30.203Z,86.57
2022-09-09T08:12:15.343Z,84.78
2022-09-09T08:14:41.938Z,84.74
2022-09-09T08:17:08.459Z,82.77
2022-09-09T08:19:36.706Z,83.54
2022-09-09T08:22:06.953Z,83.52
2022-09-09T08:24:35.163Z,82.63
2022-09-09T08:27:02.606Z,80.97
2022-09-09T08:29:29.567Z,80.97
2022-09-09T08:31:58.956Z,79.18
2022-09-09T08:34:28.165Z,79.35
2022-09-09T08:36:57.091Z,79.15
2022-09-09T08:39:30.431Z,79.10
2022-09-09T08:42:02.587Z,78.65
2022-09-09T08:44:35.575Z,78.38
2022-09-09T08:47:19.364Z,78.86
2022-09-09T08:50:06.593Z,78.85
2022-09-09T08:52:55.720Z,78.37
2022-09-09T08:55:25.435Z,78.25
2022-09-09T08:57:56.135Z,76.27
2022-09-09T09:00:35.343Z,76.74
2022-09-09T09:03:10.950Z,77.08
2022-09-09T09:06:03.065Z,75.70
2022-09-09T09:08:57.747Z,75.15
2022-09-09T09:11:24.708Z,74.08
2022-09-09T09:14:06.371Z,74.36
2022-09-09T09:17:00.383Z,75.20
2022-09-09T09:19:53.854Z,75.29
2022-09-09T09:22:47.171Z,75.40
2022-09-09T09:25:23.051Z,74.70
2022-09-09T09:28:25.547Z,73.96
2022-09-09T09:31:02.925Z,73.69
2022-09-09T09:33:41.893Z,72.61
2022-09-09T09:36:09.324Z,72.09
2022-09-09T09:41:40.827Z,71.64
2022-09-09T09:44:29.195Z,70.27
2022-09-09T09:47:14.138Z,70.43
2022-09-09T09:49:59.672Z,70.31
2022-09-09T09:52:31.058Z,69.88
2022-09-09T09:55:07.933Z,69.64
2022-09-09T09:57:35.363Z,71.17
2022-09-09T10:00:16.428Z,70.04
2022-09-09T10:02:47.417Z,70.23
2022-09-09T10:05:35.573Z,69.39
2022-09-09T10:08:14.033Z,68.73
2022-09-09T10:11:15.953Z,69.19
2022-09-09T10:13:55.807Z,68.16
2022-09-09T10:16:38.503Z,68.82
2022-09-09T10:19:09.990Z,67.94
2022-09-09T10:22:08.961Z,68.31
2022-09-09T10:25:05.093Z,68.11
2022-09-09T10:27:55.591Z,67.30
2022-09-09T10:31:04.877Z,66.48
2022-09-09T10:33:46.207Z,66.71
2022-09-09T10:36:24.628Z,67.58
2022-09-09T10:39:06.160Z,67.16
2022-09-09T10:41:40.051Z,67.41
2022-09-09T10:44:07.729Z,67.40
2022-09-09T10:46:53.474Z,67.85
2022-09-09T10:49:28.504Z,67.97
2022-09-09T10:52:29.515Z,65.86
2022-09-09T10:55:14.553Z,63.97
2022-09-09T10:57:52.236Z,61.97
2022-09-09T11:00:25.065Z,60.68
2022-09-09T11:03:03.833Z,58.87
2022-09-09T11:05:42.618Z,59.91
2022-09-09T11:08:19.374Z,60.93
2022-09-09T11:11:05.286Z,60.08
2022-09-09T11:13:52.497Z,59.40
2022-09-09T11:16:51.307Z,58.38
2022-09-09T11:19:35.201Z,58.10
2022-09-09T11:22:42.672Z,57.12
2022-09-09T11:25:15.541Z,56.91
2022-09-09T11:27:52.342Z,57.80
2022-09-09T11:31:05.134Z,57.89
2022-09-09T11:33:34.662Z,59.32
2022-09-09T11:36:17.229Z,58.95
2022-09-09T11:38:53.155Z,59.80
2022-09-09T11:41:22.129Z,60.90
2022-09-09T11:43:52.916Z,62.38
2022-09-09T11:46:23.987Z,63.14
2022-09-09T11:49:03.653Z,64.42
2022-09-09T11:51:33.058Z,66.43
2022-09-09T11:54:06.042Z,68.53
2022-09-09T11:56:35.032Z,69.98
2022-09-09T11:59:20.213Z,70.55
2022-09-09T12:01:51.829Z,70.91
2022-09-09T12:04:27.333Z,70.53
2022-09-09T12:07:21.593Z,70.65
2022-09-09T12:10:04.102Z,71.30
2022-09-09T12:12:40.371Z,70.54
2022-09-09T12:15:09.545Z,70.06
2022-09-09T12:17:47.631Z,67.89
2022-09-09T12:20:24.657Z,68.86
2022-09-09T12:23:17.081Z,67.75
2022-09-09T12:25:58.484Z,67.51
2022-09-09T12:28:44.321Z,67.01
2022-09-09T12:31:19.227Z,66.51
2022-09-09T12:33:48.399Z,67.15
2022-09-09T12:36:23.104Z,65.65
2022-09-09T12:38:51.517Z,65.37
2022-09-09T12:41:23.357Z,63.53
2022-09-09T12:43:51.640Z,63.08
2022-09-09T12:46:41.851Z,60.76
2022-09-09T12:49:35.359Z,58.71
2022-09-09T12:52:36.663Z,56.95
2022-09-09T12:55:06.082Z,56.40
2022-09-09T12:57:39.054Z,56.99
2022-09-09T13:00:18.795Z,57.07
2022-09-09T13:02:53.750Z,57.95
2022-09-09T13:05:36.397Z,58.78
2022-09-09T13:08:05.132Z,60.01
2022-09-09T13:11:00.271Z,60.52
2022-09-09T13:13:40.374Z,61.64
2022-09-09T13:16:20.448Z,61.06
2022-09-09T13:18:47.501Z,61.03
2022-09-09T13:21:15.170Z,59.59
2022-09-09T13:23:42.203Z,58.99
2022-09-09T13:26:27.433Z,57.81
2022-09-09T13:28:55.378Z,56.92
2022-09-09T13:31:34.758Z,56.40
2022-09-09T13:34:12.207Z,56.10
2022-09-09T13:36:38.655Z,55.77
2022-09-09T13:39:05.154Z,55.22
2022-09-09T13:41:37.266Z,54.16
2022-09-09T13:44:05.456Z,54.53
2022-09-09T13:46:43.296Z,55.17
2022-09-09T13:49:12.497Z,54.47
2022-09-09T13:51:47.567Z,55.29
2022-09-09T13:54:16.013Z,55.21
2022-09-09T13:56:43.476Z,55.82
2022-09-09T13:59:17.009Z,56.81
2022-09-09T14:01:44.095Z,56.35
2022-09-09T14:04:11.600Z,55.51
2022-09-09T14:06:40.137Z,54.49
2022-09-09T14:09:08.355Z,53.14
2022-09-09T14:11:35.011Z,52.48
2022-09-09T14:14:01.990Z,52.42
2022-09-09T14:16:30.506Z,52.10
2022-09-09T14:19:01.047Z,52.88
2022-09-09T14:21:29.676Z,53.10
2022-09-09T14:23:56.190Z,53.11
2022-09-09T14:26:22.987Z,51.89
2022-09-09T14:28:55.311Z,52.30
2022-09-09T14:31:23.738Z,52.03
2022-09-09T14:33:51.699Z,52.38
2022-09-09T14:36:18.179Z,52.36
2022-09-09T14:38:44.581Z,53.32
2022-09-09T14:41:17.856Z,53.86
2022-09-09T14:43:45.242Z,54.01
2022-09-09T14:46:14.133Z,53.64
2022-09-09T14:48:41.643Z,54.05
2022-09-09T14:51:14.338Z,54.53
2022-09-09T14:53:41.747Z,54.69
2022-09-09T14:56:17.636Z,55.33
2022-09-09T14:58:44.946Z,55.29
2022-09-09T15:01:14.200Z,55.69
2022-09-09T15:03:42.506Z,56.28
2022-09-09T15:06:13.881Z,55.91
2022-09-09T15:08:42.806Z,56.48
2022-09-09T15:11:11.344Z,56.72
2022-09-09T15:13:39.179Z,56.83
2022-09-09T15:16:08.179Z,57.16
2022-09-09T15:18:37.185Z,57.10
2022-09-09T15:21:05.890Z,57.72
2022-09-09T15:23:33.860Z,58.15
2022-09-09T15:26:01.493Z,58.12
2022-09-09T15:28:28.583Z,58.70
2022-09-09T15:30:55.858Z,58.29
2022-09-09T15:33:23.026Z,58.84
2022-09-09T15:35:50.692Z,58.60
2022-09-09T15:38:18.258Z,58.69
2022-09-09T15:40:44.958Z,58.65
2022-09-09T15:43:11.714Z,58.29
2022-09-09T15:45:38.413Z,58.29
2022-09-09T15:48:05.444Z,58.30
2022-09-09T15:50:33.372Z,58.35
2022-09-09T15:53:00.948Z,57.83
2022-09-09T15:55:27.962Z,57.03
2022-09-09T15:57:54.382Z,56.53
2022-09-09T16:00:21.382Z,55.89
2022-09-09T16:02:48.753Z,54.30
2022-09-09T16:05:15.738Z,53.72
2022-09-09T16:07:43.329Z,53.62
2022-09-09T16:10:10.451Z,54.50
2022-09-09T16:12:37.016Z,54.19
2022-09-09T16:15:04.033Z,54.35
2022-09-09T16:17:30.834Z,55.08
2022-09-09T16:19:58.906Z,55.23
2022-09-09T16:22:25.513Z,55.96
2022-09-09T16:24:51.998Z,56.82
2022-09-09T16:27:19.054Z,58.12
2022-09-09T16:29:46.101Z,58.75
2022-09-09T16:32:12.878Z,59.32
2022-09-09T16:34:39.339Z,59.84
2022-09-09T16:37:05.846Z,60.39
2022-09-09T16:39:32.638Z,60.93
2022-09-09T16:41:59.825Z,61.68
2022-09-09T16:44:27.502Z,61.95
2022-09-09T16:46:58.277Z,62.42
2022-09-09T16:49:28.696Z,62.85
2022-09-09T16:51:55.094Z,63.46
2022-09-09T16:54:22.857Z,63.76
2022-09-09T16:56:49.460Z,64.21
2022-09-09T16:59:18.161Z,64.16
2022-09-09T17:01:46.429Z,64.74
2022-09-09T17:04:21.288Z,64.56
2022-09-09T17:06:53.194Z,65.00
2022-09-09T17:09:21.233Z,65.54
2022-09-09T17:11:48.835Z,65.47
2022-09-09T17:14:18.567Z,65.00
2022-09-09T17:16:45.580Z,65.12
2022-09-09T17:19:12.691Z,65.91
2022-09-09T17:21:54.554Z,65.87
2022-09-09T17:24:30.139Z,66.73
2022-09-09T17:26:58.620Z,67.24
2022-09-09T17:29:26.375Z,67.63
2022-09-09T17:31:53.685Z,67.91
2022-09-09T17:34:20.168Z,68.14
2022-09-09T17:36:46.721Z,68.26
2022-09-09T17:39:13.160Z,68.15
2022-09-09T17:41:40.771Z,68.15
2022-09-09T17:46:42.073Z,67.58
2022-09-09T17:49:11.377Z,67.69
2022-09-09T17:51:37.752Z,67.77
2022-09-09T17:54:09.996Z,67.46
2022-09-09T17:56:38.684Z,67.12
2022-09-09T17:59:07.812Z,67.09
2022-09-09T18:01:39.668Z,67.13
2022-09-09T18:04:08.354Z,68.25
2022-09-09T18:06:38.346Z,72.04
2022-09-09T18:09:08.592Z,74.21
2022-09-09T18:11:43.846Z,74.66
2022-09-09T18:14:12.772Z,76.24
2022-09-09T18:16:40.779Z,78.72
2022-09-09T18:19:09.574Z,79.44
2022-09-09T18:21:36.293Z,80.73
2022-09-09T18:24:06.475Z,81.02
2022-09-09T18:26:35.216Z,83.96
2022-09-09T18:29:09.453Z,85.87
2022-09-09T18:31:37.657Z,84.58
2022-09-09T18:34:06.166Z,85.55
2022-09-09T18:36:39.094Z,86.54
2022-09-09T18:39:07.463Z,86.21
2022-09-09T18:41:37.239Z,86.75
2022-09-09T18:44:10.381Z,87.23
2022-09-09T18:46:39.808Z,86.70
2022-09-09T18:49:07.034Z,86.53
2022-09-09T18:51:35.268Z,87.05
2022-09-09T18:54:09.379Z,87.23
2022-09-09T18:56:36.775Z,87.68
2022-09-09T18:59:06.561Z,88.38
2022-09-09T19:01:35.487Z,88.43
2022-09-09T19:04:04.239Z,89.27
2022-09-09T19:06:32.642Z,89.27
2022-09-09T19:09:03.714Z,88.24
2022-09-09T19:11:31.386Z,88.72
2022-09-09T19:14:01.488Z,90.16
2022-09-09T19:16:30.628Z,91.01
2022-09-09T19:19:02.399Z,91.13
2022-09-09T19:21:31.704Z,91.51
2022-09-09T19:24:07.503Z,91.81
2022-09-09T19:26:40.750Z,92.01
2022-09-09T19:29:10.095Z,92.69
2022-09-09T19:31:37.138Z,92.52
2022-09-09T19:34:05.192Z,93.00
2022-09-09T19:36:31.702Z,93.45
2022-09-09T19:38:58.955Z,93.72
2022-09-09T19:41:27.965Z,93.49
2022-09-09T19:44:02.935Z,93.57
2022-09-09T19:46:36.539Z,93.44
2022-09-09T19:49:05.159Z,93.31
2022-09-09T19:51:32.489Z,92.93
2022-09-09T19:54:03.182Z,92.93
2022-09-09T19:56:31.163Z,92.89
2022-09-09T19:58:57.813Z,92.19
2022-09-09T20:01:28.018Z,92.44
2022-09-09T20:03:56.896Z,92.70
2022-09-09T20:06:29.012Z,92.88
2022-09-09T20:08:56.747Z,92.16
2022-09-09T20:11:24.945Z,91.93
2022-09-09T20:13:51.763Z,91.69
2022-09-09T20:16:23.787Z,91.92
2022-09-09T20:18:56.769Z,91.72
2022-09-09T20:21:35.172Z,91.62
2022-09-09T20:24:07.409Z,91.93
2022-09-09T20:26:36.279Z,91.70
2022-09-09T20:29:07.640Z,91.59
2022-09-09T20:31:36.541Z,91.81
2022-09-09T20:34:05.167Z,91.48
2022-09-09T20:36:35.256Z,91.43
2022-09-09T20:39:09.331Z,91.50
2022-09-09T20:41:37.506Z,91.64
2022-09-09T20:44:12.233Z,91.90
2022-09-09T20:46:41.221Z,91.98
2022-09-09T20:49:08.877Z,92.08
2022-09-09T20:51:35.910Z,91.40
2022-09-09T20:54:08.515Z,91.67
2022-09-09T20:56:38.572Z,91.71
2022-09-09T20:59:07.438Z,91.89
2022-09-09T21:01:34.156Z,92.13
2022-09-09T21:04:01.101Z,92.13
2022-09-09T21:06:27.708Z,92.02
2022-09-09T21:08:54.321Z,92.28
2022-09-09T21:11:20.866Z,92.01
2022-09-09T21:13:47.349Z,92.39
2022-09-09T21:16:19.314Z,91.61
2022-09-09T21:18:45.851Z,92.34
2022-09-09T21:21:12.292Z,92.39
2022-09-09T21:23:38.813Z,92.40
2022-09-09T21:26:07.446Z,92.40
2022-09-09T21:28:35.981Z,92.75
2022-09-09T21:31:03.548Z,92.77
2022-09-09T21:33:30.416Z,92.76
2022-09-09T21:36:03.518Z,92.29
2022-09-09T21:38:30.318Z,91.40
2022-09-09T21:40:56.926Z,91.96
2022-09-09T21:43:26.232Z,92.11
2022-09-09T21:45:53.618Z,92.99
2022-09-09T21:48:20.055Z,92.91
2022-09-09T21:50:48.025Z,92.96
2022-09-09T21:53:18.052Z,93.82
2022-09-09T21:55:46.475Z,93.63
2022-09-09T21:58:14.283Z,94.27
2022-09-09T22:00:42.601Z,94.45
2022-09-09T22:03:09.325Z,94.38
2022-09-09T22:05:40.120Z,94.64
2022-09-09T22:08:06.554Z,94.70
2022-09-09T22:10:36.666Z,94.49
2022-09-09T22:13:03.349Z,94.25
2022-09-09T22:15:31.133Z,94.24
2022-09-09T22:18:00.023Z,94.16
2022-09-09T22:20:26.435Z,93.72
2022-09-09T22:22:52.858Z,93.61
2022-09-09T22:25:19.231Z,93.56
2022-09-09T22:27:45.669Z,93.59
2022-09-09T22:30:12.216Z,93.73
2022-09-09T22:32:38.865Z,93.82
2022-09-09T22:35:05.852Z,93.74
2022-09-09T22:37:32.453Z,93.58
2022-09-09T22:39:59.107Z,93.92
2022-09-09T22:42:25.514Z,93.59
2022-09-09T22:44:51.923Z,93.94
2022-09-09T22:47:18.510Z,93.64
2022-09-09T22:49:44.903Z,93.24
2022-09-09T22:52:11.360Z,94.22
2022-09-09T22:54:40.608Z,94.45
2022-09-09T22:57:09.457Z,94.54
2022-09-09T22:59:36.342Z,94.13
2022-09-09T23:02:03.088Z,94.49
2022-09-09T23:04:29.533Z,94.43
2022-09-09T23:06:56.141Z,94.13
2022-09-09T23:09:22.691Z,94.28
2022-09-09T23:11:49.173Z,93.53
2022-09-09T23:14:15.561Z,93.03
2022-09-09T23:16:46.493Z,93.81
2022-09-09T23:19:16.186Z,94.53
2022-09-09T23:21:45.121Z,94.26
2022-09-09T23:24:14.677Z,94.00
2022-09-09T23:26:43.997Z,94.56
2022-09-09T23:29:14.645Z,94.72
2022-09-09T23:31:44.356Z,94.73
2022-09-09T23:34:12.820Z,95.23
2022-09-09T23:36:39.526Z,94.98
2022-09-09T23:39:07.167Z,95.18
2022-09-09T23:41:35.448Z,95.17
2022-09-09T23:44:03.815Z,94.71
2022-09-09T23:46:32.187Z,94.67
2022-09-09T23:48:59.711Z,94.54
2022-09-09T23:51:30.338Z,94.78
2022-09-09T23:54:01.003Z,94.04
2022-09-09T23:56:32.258Z,94.35
2022-09-09T23:58:59.959Z,94.17
